Time;durP1;ratioP1;P1;durP2;ratioP2;P2;SDS_P1;SDS_P2;PMS_P1;PMS_P2;Temp;Humidity;BMP_temperature;BMP_pressure;BME280_temperature;BME280_humidity;BME280_pressure;Samples;Min_cycle;Max_cycle;Signal;HPM_P1;HPM_P2
2021/09/08 00:00:05;;;;;;;5.67;5.17;;;;;;;15.31;82.24;100913.31;5024476;28;20236;-77
2021/09/08 00:02:31;;;;;;;6.00;5.37;;;;;;;15.38;82.18;100901.72;5026861;28;20235;-77
2021/09/08 00:04:58;;;;;;;5.77;5.07;;;;;;;15.43;81.94;100901.56;5023897;28;20262;-77
2021/09/08 00:07:24;;;;;;;5.00;4.50;;;;;;;15.47;82.05;100895.28;5028968;28;20211;-74
2021/09/08 00:09:51;;;;;;;5.57;5.07;;;;;;;15.39;82.18;100902.56;5024048;28;21037;-78
2021/09/08 00:12:17;;;;;;;4.87;4.47;;;;;;;15.37;81.96;100912.28;5027636;28;20218;-77
2021/09/08 00:14:43;;;;;;;5.80;5.20;;;;;;;15.39;81.80;100913.09;5024150;28;20259;-75
2021/09/08 00:17:11;;;;;;;5.27;4.77;;;;;;;15.30;82.34;100898.44;5023606;28;20677;-77
2021/09/08 00:19:38;;;;;;;7.70;5.30;;;;;;;15.29;82.36;100894.09;5026136;28;20603;-76
2021/09/08 00:22:04;;;;;;;5.63;4.97;;;;;;;15.22;81.86;100921.50;5022619;28;20309;-75
2021/09/08 00:24:30;;;;;;;6.67;5.67;;;;;;;15.23;82.12;100920.59;5031637;28;20252;-77
2021/09/08 00:26:57;;;;;;;6.23;5.73;;;;;;;15.13;82.57;100901.59;5023691;28;20211;-77
2021/09/08 00:29:23;;;;;;;6.00;5.50;;;;;;;15.22;81.99;100914.47;5023819;28;20270;-76
2021/09/08 00:31:50;;;;;;;5.73;4.80;;;;;;;15.24;82.10;100919.66;5026771;28;20222;-75
2021/09/08 00:34:18;;;;;;;6.30;5.70;;;;;;;15.28;81.90;100921.28;5022691;28;20219;-77
2021/09/08 00:36:44;;;;;;;9.40;5.50;;;;;;;15.23;82.36;100900.41;5024017;28;20210;-75
2021/09/08 00:41:46;;;;;;;8.03;6.20;;;;;;;15.26;82.15;100909.97;5457617;23;20225;-77
2021/09/08 00:44:14;;;;;;;6.00;5.50;;;;;;;15.13;82.20;100906.88;4985363;28;20216;-77
2021/09/08 00:46:42;;;;;;;8.90;6.00;;;;;;;15.11;81.58;100926.22;4994551;28;20701;-77
2021/09/08 00:49:09;;;;;;;5.70;5.23;;;;;;;15.04;81.86;100921.16;4997807;28;20207;-76
2021/09/08 00:51:37;;;;;;;6.10;5.53;;;;;;;15.04;82.62;100900.13;4999866;28;20280;-79
2021/09/08 00:54:06;;;;;;;5.63;5.23;;;;;;;15.00;83.53;100877.44;5004193;28;20672;-79
2021/09/08 00:56:34;;;;;;;6.20;5.70;;;;;;;15.01;82.91;100894.09;5005371;28;20207;-78
2021/09/08 00:59:00;;;;;;;5.47;4.97;;;;;;;15.05;82.77;100900.97;5005048;28;20577;-77
2021/09/08 01:01:27;;;;;;;6.80;6.13;;;;;;;15.03;82.50;100908.91;5004692;28;20230;-78
2021/09/08 01:03:53;;;;;;;5.83;5.33;;;;;;;15.00;82.73;100905.50;5004738;28;20279;-78
2021/09/08 01:06:21;;;;;;;6.27;5.77;;;;;;;14.96;82.67;100898.63;5005848;28;20204;-77
2021/09/08 01:08:49;;;;;;;6.57;6.07;;;;;;;14.91;82.72;100897.91;5005733;28;20210;-77
2021/09/08 01:11:15;;;;;;;5.83;5.33;;;;;;;14.87;82.62;100900.63;5005010;28;20222;-78
2021/09/08 01:13:42;;;;;;;6.17;5.57;;;;;;;14.84;82.53;100913.81;5005226;28;20215;-78
2021/09/08 01:16:08;;;;;;;5.53;5.10;;;;;;;14.84;82.89;100887.53;5005705;28;20576;-78
2021/09/08 01:18:36;;;;;;;5.17;4.77;;;;;;;14.87;83.30;100878.72;5005852;28;20207;-78
2021/09/08 01:21:02;;;;;;;5.50;5.10;;;;;;;14.81;82.58;100897.31;5004189;28;20777;-77
2021/09/08 01:23:31;;;;;;;5.83;5.37;;;;;;;14.81;83.10;100882.41;5005671;28;20270;-77
2021/09/08 01:25:57;;;;;;;6.53;5.40;;;;;;;14.83;83.20;100877.09;5005265;28;20257;-77
2021/09/08 01:28:23;;;;;;;5.73;4.83;;;;;;;14.82;83.33;100865.69;5005764;28;20856;-78
2021/09/08 01:30:54;;;;;;;6.03;5.43;;;;;;;14.75;83.96;100850.19;5004971;28;20693;-78
2021/09/08 01:33:20;;;;;;;5.40;4.90;;;;;;;14.70;83.86;100861.66;5005179;28;20212;-77
2021/09/08 01:35:47;;;;;;;6.30;5.80;;;;;;;14.62;84.34;100857.56;5005300;28;20215;-78
2021/09/08 01:38:13;;;;;;;6.67;6.07;;;;;;;14.62;84.20;100842.66;5005892;28;20281;-78
2021/09/08 01:40:41;;;;;;;6.57;6.00;;;;;;;14.65;83.71;100860.97;5004772;28;20223;-78
2021/09/08 01:43:07;;;;;;;5.80;5.30;;;;;;;14.71;83.58;100870.44;5005357;28;20218;-77
2021/09/08 01:45:34;;;;;;;5.83;5.23;;;;;;;14.74;83.76;100865.06;5005488;28;20218;-78
2021/09/08 01:48:00;;;;;;;6.20;5.60;;;;;;;14.74;83.84;100867.69;5008659;28;20285;-79
2021/09/08 01:50:26;;;;;;;6.17;5.57;;;;;;;14.73;83.44;100880.88;5008652;28;20214;-77
2021/09/08 01:52:53;;;;;;;5.97;5.37;;;;;;;14.72;82.99;100893.16;5009581;28;20260;-78
2021/09/08 01:55:19;;;;;;;6.77;6.17;;;;;;;14.62;84.30;100868.91;5009179;28;20266;-77
2021/09/08 01:57:47;;;;;;;5.67;5.17;;;;;;;14.61;83.32;100876.88;5009276;28;20216;-77
2021/09/08 02:00:15;;;;;;;6.47;5.87;;;;;;;14.52;84.01;100874.47;5008661;28;20208;-78
2021/09/08 02:02:42;;;;;;;6.90;6.20;;;;;;;14.51;85.27;100839.47;5008838;28;20257;-77
2021/09/08 02:05:10;;;;;;;7.00;6.40;;;;;;;14.57;84.89;100841.06;5009538;28;20215;-77
2021/09/08 02:07:36;;;;;;;7.20;6.60;;;;;;;14.53;85.14;100831.50;5009175;28;20222;-78
2021/09/08 02:10:03;;;;;;;7.83;5.90;;;;;;;14.54;84.98;100846.38;5008480;28;20213;-78
2021/09/08 02:12:30;;;;;;;7.57;6.87;;;;;;;14.50;84.76;100837.72;5009204;28;20282;-76
2021/09/08 02:14:57;;;;;;;7.30;6.17;;;;;;;14.52;84.53;100856.06;5008706;28;20212;-77
2021/09/08 02:17:24;;;;;;;6.67;6.10;;;;;;;14.50;84.06;100866.63;5009327;28;20206;-77
2021/09/08 02:19:50;;;;;;;6.33;5.83;;;;;;;14.38;83.87;100873.06;5009207;28;20269;-77
2021/09/08 02:22:17;;;;;;;6.00;5.50;;;;;;;14.37;83.98;100868.75;5008370;28;20240;-77
2021/09/08 02:24:43;;;;;;;6.57;5.77;;;;;;;14.36;84.89;100855.66;5008310;28;20211;-76
2021/09/08 02:27:10;;;;;;;6.60;6.10;;;;;;;14.30;84.81;100843.53;5009232;28;20200;-77
2021/09/08 02:29:36;;;;;;;7.20;6.43;;;;;;;14.27;85.63;100819.97;5008590;28;20239;-79
2021/09/08 02:32:05;;;;;;;6.43;5.80;;;;;;;14.27;84.66;100855.00;5008862;28;20222;-77
2021/09/08 02:34:31;;;;;;;6.33;5.77;;;;;;;14.25;84.38;100848.94;5008767;28;20222;-77
2021/09/08 02:36:57;;;;;;;6.10;5.60;;;;;;;14.20;84.80;100848.19;5009644;28;20216;-77
2021/09/08 02:39:24;;;;;;;6.10;5.60;;;;;;;14.18;84.02;100844.75;5009727;28;20233;-79
2021/09/08 02:41:50;;;;;;;6.23;5.63;;;;;;;14.17;84.99;100829.91;5009466;28;20285;-79
2021/09/08 02:44:17;;;;;;;6.37;5.77;;;;;;;14.21;83.64;100855.16;5009000;28;20219;-78
2021/09/08 02:46:43;;;;;;;5.50;5.00;;;;;;;14.19;83.97;100853.47;5008536;28;20216;-79
2021/09/08 02:49:12;;;;;;;6.43;5.90;;;;;;;14.15;84.59;100846.59;5006860;28;20207;-77
2021/09/08 02:51:38;;;;;;;6.17;5.50;;;;;;;14.16;84.87;100824.69;5007268;28;21036;-77
2021/09/08 02:54:05;;;;;;;6.07;5.23;;;;;;;14.11;84.34;100824.78;5007304;28;20214;-78
2021/09/08 02:56:31;;;;;;;6.37;5.77;;;;;;;14.17;83.96;100837.78;5007068;28;20214;-77
2021/09/08 02:58:57;;;;;;;6.30;5.90;;;;;;;14.12;84.54;100841.44;5006498;28;20206;-79
2021/09/08 03:01:24;;;;;;;6.37;5.77;;;;;;;14.10;84.57;100842.31;5006390;28;20232;-78
2021/09/08 03:03:50;;;;;;;7.07;5.80;;;;;;;14.08;84.26;100845.91;5006961;28;20215;-77
2021/09/08 03:06:18;;;;;;;7.50;6.63;;;;;;;14.09;84.78;100830.13;5007529;28;20214;-79
2021/09/08 03:08:44;;;;;;;6.43;5.93;;;;;;;14.09;84.92;100814.38;5007026;28;20265;-79
2021/09/08 03:11:10;;;;;;;6.43;5.93;;;;;;;14.09;85.04;100811.75;5005745;28;20219;-77
2021/09/08 03:13:37;;;;;;;5.80;5.30;;;;;;;14.11;84.76;100819.53;5004869;28;20229;-79
2021/09/08 03:16:04;;;;;;;7.67;5.93;;;;;;;14.13;83.98;100840.50;5005899;28;20632;-78
2021/09/08 03:18:30;;;;;;;6.17;5.67;;;;;;;14.04;84.30;100845.09;5005170;28;20268;-76
2021/09/08 03:20:56;;;;;;;6.63;6.03;;;;;;;14.01;83.45;100853.09;5004276;28;20395;-79
2021/09/08 03:23:24;;;;;;;6.50;6.00;;;;;;;13.96;84.03;100854.09;5004701;28;20292;-78
2021/09/08 03:25:50;;;;;;;6.80;6.10;;;;;;;13.98;83.89;100841.81;5006253;28;20210;-79
2021/09/08 03:28:17;;;;;;;7.60;6.53;;;;;;;13.88;83.91;100844.66;5006278;28;20277;-79
2021/09/08 03:30:43;;;;;;;6.30;5.70;;;;;;;13.88;84.06;100849.91;5005445;28;20771;-79
2021/09/08 03:33:10;;;;;;;7.20;6.60;;;;;;;13.74;86.17;100793.47;5006080;28;20253;-78
2021/09/08 03:35:36;;;;;;;7.00;6.40;;;;;;;13.81;86.04;100779.25;5006331;28;20215;-79
2021/09/08 03:38:02;;;;;;;6.80;6.30;;;;;;;13.86;86.27;100782.63;5006302;28;20262;-78
2021/09/08 03:40:30;;;;;;;7.10;6.50;;;;;;;13.89;85.24;100809.66;5005289;28;20265;-78
2021/09/08 03:42:57;;;;;;;6.30;5.80;;;;;;;13.87;84.61;100834.19;5005634;28;20234;-75
2021/09/08 03:45:23;;;;;;;11.37;6.70;;;;;;;13.75;84.62;100840.63;5006012;28;20218;-79
2021/09/08 03:47:49;;;;;;;6.10;5.60;;;;;;;13.78;84.40;100837.06;5005552;28;20210;-78
2021/09/08 03:50:16;;;;;;;6.27;5.77;;;;;;;13.70;84.49;100845.13;5005736;28;20482;-76
2021/09/08 03:52:42;;;;;;;6.70;6.20;;;;;;;13.65;84.97;100823.41;5005580;28;20218;-80
2021/09/08 03:55:09;;;;;;;7.23;6.53;;;;;;;13.69;84.99;100815.41;5004385;28;20257;-77
2021/09/08 03:57:37;;;;;;;7.70;7.10;;;;;;;13.64;85.63;100798.94;5004497;28;21348;-77
2021/09/08 04:00:05;;;;;;;8.30;7.03;;;;;;;13.62;85.87;100778.91;5004113;28;20574;-78
2021/09/08 04:02:31;;;;;;;7.83;6.80;;;;;;;13.61;85.57;100788.50;5004425;28;20234;-77
2021/09/08 04:04:58;;;;;;;7.53;6.80;;;;;;;13.55;85.50;100801.78;5003543;28;20615;-78
2021/09/08 04:07:25;;;;;;;8.00;7.30;;;;;;;13.46;85.27;100815.16;5004514;28;20584;-76
2021/09/08 04:09:52;;;;;;;7.50;6.90;;;;;;;13.47;85.58;100801.13;5003138;28;20206;-79
2021/09/08 04:12:18;;;;;;;7.33;6.73;;;;;;;13.47;86.70;100772.28;5003820;28;20281;-77
2021/09/08 04:14:46;;;;;;;6.43;5.93;;;;;;;13.47;86.64;100767.88;5004062;28;21319;-76
2021/09/08 04:17:12;;;;;;;6.33;5.83;;;;;;;13.57;86.59;100767.66;5004279;28;20672;-78
2021/09/08 04:19:39;;;;;;;6.30;5.80;;;;;;;13.56;86.70;100755.41;5003796;28;20249;-79
2021/09/08 04:22:06;;;;;;;6.37;5.87;;;;;;;13.54;86.51;100765.09;5003357;28;20230;-78
2021/09/08 04:24:32;;;;;;;6.50;5.90;;;;;;;13.49;85.54;100792.31;5004094;28;20210;-78
2021/09/08 04:26:59;;;;;;;7.43;6.50;;;;;;;13.51;85.61;100794.91;5004312;28;20676;-78
2021/09/08 04:29:25;;;;;;;8.30;7.53;;;;;;;13.47;85.33;100798.50;5003504;28;20700;-77
2021/09/08 04:31:53;;;;;;;8.00;7.20;;;;;;;13.47;85.50;100808.97;5003499;28;20254;-77
2021/09/08 04:34:19;;;;;;;7.70;7.00;;;;;;;13.42;85.65;100795.13;5004198;28;20207;-76
2021/09/08 04:36:45;;;;;;;7.13;6.57;;;;;;;13.31;85.69;100793.63;5003851;28;20265;-78
2021/09/08 04:39:12;;;;;;;6.30;5.80;;;;;;;13.36;85.62;100788.28;5003909;28;20279;-77
2021/09/08 04:41:38;;;;;;;6.20;5.70;;;;;;;13.29;86.35;100773.56;5003193;28;20234;-79
2021/09/08 04:44:05;;;;;;;5.87;5.33;;;;;;;13.32;86.52;100752.56;5003292;28;20214;-77
2021/09/08 04:46:31;;;;;;;5.93;5.33;;;;;;;13.31;86.76;100756.91;5003898;28;20273;-77
2021/09/08 04:48:59;;;;;;;5.80;5.40;;;;;;;13.33;85.79;100774.38;5003486;28;20203;-78
2021/09/08 04:51:25;;;;;;;5.73;5.30;;;;;;;13.38;85.17;100803.97;5003021;28;20293;-78
2021/09/08 04:53:52;;;;;;;5.73;5.33;;;;;;;13.37;85.26;100802.25;5003674;28;20214;-77
2021/09/08 04:56:18;;;;;;;5.93;5.43;;;;;;;13.31;85.39;100801.50;5004095;28;20261;-78
2021/09/08 04:58:44;;;;;;;6.33;5.73;;;;;;;13.24;85.89;100794.66;5003311;28;20688;-76
2021/09/08 05:01:11;;;;;;;6.87;6.00;;;;;;;13.21;86.03;100788.63;5003558;28;20778;-77
2021/09/08 05:03:37;;;;;;;7.23;5.53;;;;;;;13.25;85.80;100793.75;5003379;28;20304;-79
2021/09/08 05:06:05;;;;;;;6.03;5.47;;;;;;;13.25;86.08;100782.41;5002689;28;20199;-78
2021/09/08 05:08:31;;;;;;;6.20;5.70;;;;;;;13.27;86.20;100775.38;5003474;28;20218;-77
2021/09/08 05:10:57;;;;;;;6.43;5.83;;;;;;;13.30;86.60;100780.56;5003125;28;20223;-79
2021/09/08 05:13:24;;;;;;;7.43;6.03;;;;;;;13.36;86.65;100769.03;5003663;28;20291;-78
2021/09/08 05:15:50;;;;;;;6.70;6.10;;;;;;;13.40;86.89;100760.19;5003859;28;20463;-78
2021/09/08 05:18:17;;;;;;;6.13;5.63;;;;;;;13.37;87.59;100737.56;5003536;28;20206;-79
2021/09/08 05:20:44;;;;;;;6.80;6.20;;;;;;;13.33;87.54;100738.53;5004165;28;20229;-79
2021/09/08 05:23:11;;;;;;;6.73;6.03;;;;;;;13.34;87.97;100724.53;5006998;28;20230;-78
2021/09/08 05:25:38;;;;;;;8.83;6.43;;;;;;;13.38;88.67;100718.31;5007376;28;20206;-77
2021/09/08 05:28:04;;;;;;;6.70;6.17;;;;;;;13.41;88.43;100709.50;5008134;28;20252;-79
2021/09/08 05:30:31;;;;;;;6.20;5.60;;;;;;;13.47;88.19;100714.56;5006854;28;20207;-77
2021/09/08 05:32:57;;;;;;;6.80;6.10;;;;;;;13.52;88.11;100725.81;5007331;28;20205;-79
2021/09/08 05:35:24;;;;;;;6.33;5.07;;;;;;;13.55;87.69;100736.22;5006476;28;20297;-79
2021/09/08 05:37:50;;;;;;;6.37;5.87;;;;;;;13.62;87.93;100740.41;5005426;28;20541;-76
2021/09/08 05:40:18;;;;;;;7.20;6.50;;;;;;;13.64;88.49;100733.34;5005793;28;20241;-76
2021/09/08 05:42:44;;;;;;;9.33;7.73;;;;;;;13.73;88.62;100720.88;5004611;28;20281;-76
2021/09/08 05:45:11;;;;;;;8.80;7.97;;;;;;;13.82;88.54;100716.25;5005019;28;20735;-77
2021/09/08 05:47:38;;;;;;;9.47;8.60;;;;;;;13.88;88.63;100716.06;5006565;28;20214;-76
2021/09/08 05:50:05;;;;;;;9.37;8.60;;;;;;;13.92;88.03;100732.59;5006153;28;20745;-76
2021/09/08 05:52:31;;;;;;;10.00;9.10;;;;;;;13.86;88.31;100731.00;5005421;28;20651;-76
2021/09/08 05:54:58;;;;;;;10.63;9.73;;;;;;;13.93;88.34;100734.31;5005689;28;20207;-77
2021/09/08 05:57:25;;;;;;;10.00;9.20;;;;;;;13.97;87.52;100748.19;5005848;28;20327;-77
2021/09/08 05:59:52;;;;;;;9.53;8.77;;;;;;;13.99;87.40;100757.75;5004649;28;20210;-78
2021/09/08 06:02:18;;;;;;;10.37;9.33;;;;;;;14.06;87.33;100764.56;5004002;28;20607;-76
2021/09/08 06:04:46;;;;;;;9.70;8.87;;;;;;;14.08;87.28;100762.75;5005086;28;20269;-79
2021/09/08 06:07:12;;;;;;;9.93;9.03;;;;;;;14.06;87.15;100767.19;5005173;28;20254;-79
2021/09/08 06:09:39;;;;;;;11.40;10.30;;;;;;;14.11;87.14;100764.41;5004987;28;20261;-77
2021/09/08 06:12:05;;;;;;;10.13;9.30;;;;;;;14.08;87.63;100759.28;5004517;28;20230;-76
2021/09/08 06:14:33;;;;;;;11.13;10.10;;;;;;;14.05;88.11;100748.84;5004426;28;20561;-76
2021/09/08 06:16:59;;;;;;;10.43;9.30;;;;;;;14.08;87.75;100746.16;5004537;28;20206;-78
2021/09/08 06:19:26;;;;;;;10.83;9.87;;;;;;;14.12;88.35;100744.28;5004557;28;20209;-75
2021/09/08 06:21:53;;;;;;;10.63;9.67;;;;;;;14.13;88.12;100741.59;5005675;28;20223;-78
2021/09/08 06:24:19;;;;;;;9.90;9.13;;;;;;;14.16;88.04;100748.56;5005054;28;20602;-77
2021/09/08 06:26:45;;;;;;;11.13;10.17;;;;;;;14.20;88.13;100758.91;5004750;28;20207;-76
2021/09/08 06:29:12;;;;;;;11.60;10.70;;;;;;;14.19;88.40;100749.34;5005156;28;20214;-76
2021/09/08 06:31:39;;;;;;;10.43;9.57;;;;;;;14.28;87.89;100764.81;5003306;28;20227;-77
2021/09/08 06:34:06;;;;;;;11.00;10.10;;;;;;;14.26;87.67;100771.88;5003850;28;20209;-75
2021/09/08 06:36:32;;;;;;;10.10;9.30;;;;;;;14.33;87.17;100779.56;5005154;28;20207;-79
2021/09/08 06:38:59;;;;;;;11.10;9.53;;;;;;;14.37;86.54;100803.09;5005672;28;20207;-77
2021/09/08 06:41:26;;;;;;;10.33;9.43;;;;;;;14.34;87.22;100794.44;5004602;28;20231;-77
2021/09/08 06:43:52;;;;;;;10.83;9.73;;;;;;;14.39;87.07;100792.50;5003703;28;20234;-78
2021/09/08 06:46:19;;;;;;;9.63;8.77;;;;;;;14.40;87.36;100776.72;5004274;28;20616;-77
2021/09/08 06:48:46;;;;;;;9.70;8.80;;;;;;;14.44;88.36;100759.94;5004700;28;20637;-78
2021/09/08 06:51:13;;;;;;;10.80;9.80;;;;;;;14.59;89.80;100698.25;5004431;28;20225;-75
2021/09/08 06:53:39;;;;;;;8.93;8.23;;;;;;;14.67;87.88;100732.19;5004830;28;20273;-76
2021/09/08 06:56:06;;;;;;;10.00;9.10;;;;;;;14.76;89.07;100734.50;5003883;28;20195;-79
2021/09/08 06:58:33;;;;;;;9.63;8.83;;;;;;;14.82;89.29;100713.28;5003385;28;20205;-78
2021/09/08 07:00:59;;;;;;;9.57;8.67;;;;;;;14.94;89.21;100714.66;5004385;28;20280;-77
2021/09/08 07:03:26;;;;;;;10.33;9.13;;;;;;;15.06;90.90;100664.31;5004661;28;20743;-77
2021/09/08 07:05:53;;;;;;;9.73;8.77;;;;;;;15.14;90.87;100679.78;5004766;28;20211;-76
2021/09/08 07:08:20;;;;;;;9.00;8.10;;;;;;;15.28;91.13;100660.91;5005867;28;20215;-81
2021/09/08 07:10:48;;;;;;;13.67;7.57;;;;;;;15.32;90.71;100666.94;5009281;28;20226;-80
2021/09/08 07:13:14;;;;;;;7.83;7.13;;;;;;;15.42;90.64;100677.09;5013015;28;20226;-79
2021/09/08 07:15:41;;;;;;;7.37;6.67;;;;;;;15.52;90.17;100692.53;5011941;28;20269;-79
2021/09/08 07:18:07;;;;;;;8.60;7.40;;;;;;;15.58;90.26;100695.84;5011225;28;20208;-79
2021/09/08 07:20:33;;;;;;;7.63;6.97;;;;;;;15.57;89.81;100714.28;5013077;28;20207;-78
2021/09/08 07:23:01;;;;;;;7.23;6.60;;;;;;;15.49;89.30;100727.72;5008492;28;20226;-78
2021/09/08 07:25:28;;;;;;;7.27;6.57;;;;;;;15.44;89.13;100730.50;5014733;28;20211;-80
2021/09/08 07:27:54;;;;;;;6.80;6.20;;;;;;;15.38;89.59;100719.31;5016466;28;20207;-79
2021/09/08 07:30:21;;;;;;;7.10;6.33;;;;;;;15.23;90.48;100694.44;5015620;28;20272;-79
2021/09/08 07:32:47;;;;;;;6.73;6.13;;;;;;;15.18;91.44;100662.16;5012658;28;20253;-79
2021/09/08 07:35:13;;;;;;;6.40;5.90;;;;;;;15.26;92.44;100637.31;5011525;28;20269;-79
2021/09/08 07:37:40;;;;;;;7.23;6.63;;;;;;;15.42;93.02;100621.84;5013687;28;20207;-79
2021/09/08 07:40:10;;;;;;;33.37;11.93;;;;;;;15.66;92.79;100628.00;5014249;28;20230;-80
2021/09/08 07:42:37;;;;;;;14.73;10.10;;;;;;;15.68;91.85;100664.78;5015852;28;21001;-80
2021/09/08 07:45:04;;;;;;;8.40;7.60;;;;;;;15.80;91.30;100669.63;5016994;28;20213;-78
2021/09/08 07:47:30;;;;;;;7.47;6.83;;;;;;;15.79;91.39;100680.19;5013306;28;20209;-78
2021/09/08 07:49:56;;;;;;;8.53;7.73;;;;;;;15.79;91.50;100680.19;5005359;28;20323;-77
2021/09/08 07:52:23;;;;;;;8.87;7.70;;;;;;;15.81;92.17;100665.22;5004770;28;20224;-78
2021/09/08 07:54:50;;;;;;;15.70;9.10;;;;;;;15.91;91.71;100669.22;5006085;28;20321;-78
2021/09/08 07:57:17;;;;;;;9.80;7.57;;;;;;;15.92;91.59;100680.63;5006643;28;20279;-80
2021/09/08 07:59:44;;;;;;;8.40;7.77;;;;;;;15.99;91.81;100684.72;5002560;28;20207;-77
2021/09/08 08:02:10;;;;;;;8.80;8.00;;;;;;;16.15;91.93;100677.94;5001819;28;20293;-78
2021/09/08 08:04:36;;;;;;;8.63;7.83;;;;;;;16.33;91.27;100699.25;5005091;28;20628;-77
2021/09/08 08:07:03;;;;;;;9.20;8.30;;;;;;;16.51;90.58;100714.34;5006221;28;20204;-77
2021/09/08 08:09:29;;;;;;;7.03;6.43;;;;;;;16.49;90.13;100747.81;5003396;28;20269;-77
2021/09/08 08:11:56;;;;;;;7.70;7.03;;;;;;;16.35;90.87;100735.16;5007795;28;20301;-78
2021/09/08 08:14:24;;;;;;;9.60;8.70;;;;;;;16.34;90.62;100733.44;5008339;28;20673;-79
2021/09/08 08:16:51;;;;;;;9.93;8.93;;;;;;;16.32;91.33;100718.63;5006747;28;20216;-78
2021/09/08 08:19:18;;;;;;;9.33;8.50;;;;;;;16.35;91.54;100708.81;5003638;28;20207;-77
2021/09/08 08:21:44;;;;;;;9.67;8.90;;;;;;;16.29;91.78;100701.13;5005075;28;20298;-78
2021/09/08 08:24:11;;;;;;;8.23;7.53;;;;;;;16.31;92.14;100691.38;5003422;28;20230;-78
2021/09/08 08:26:37;;;;;;;11.07;9.17;;;;;;;16.38;91.65;100715.75;5003510;28;20507;-76
2021/09/08 08:29:03;;;;;;;11.30;8.37;;;;;;;16.44;92.16;100702.31;5004727;28;20208;-78
2021/09/08 08:31:31;;;;;;;9.40;7.73;;;;;;;16.44;92.24;100699.69;5005066;28;20311;-77
2021/09/08 08:33:57;;;;;;;10.17;8.43;;;;;;;16.50;92.06;100707.34;5004194;28;20206;-78
2021/09/08 08:36:24;;;;;;;8.87;8.07;;;;;;;16.57;91.53;100727.28;5004228;28;20222;-78
2021/09/08 08:38:51;;;;;;;8.77;7.90;;;;;;;16.61;91.48;100722.72;5006507;28;20212;-78
2021/09/08 08:41:17;;;;;;;9.43;7.97;;;;;;;16.63;92.05;100711.22;5004941;28;20218;-78
2021/09/08 08:43:44;;;;;;;13.67;7.87;;;;;;;16.65;91.50;100727.84;5005119;28;20296;-77
2021/09/08 08:46:10;;;;;;;9.87;9.03;;;;;;;16.71;91.92;100707.41;5003776;28;20274;-77
2021/09/08 08:48:38;;;;;;;9.83;8.80;;;;;;;16.78;92.14;100703.63;5006531;28;20346;-77
2021/09/08 08:51:04;;;;;;;8.30;7.50;;;;;;;16.80;91.59;100714.97;5004024;28;20224;-76
2021/09/08 08:53:31;;;;;;;11.63;9.70;;;;;;;16.85;89.86;100769.25;5005498;28;20207;-79
2021/09/08 08:55:57;;;;;;;8.40;7.70;;;;;;;16.92;90.26;100777.78;5008247;28;20211;-79
2021/09/08 08:58:24;;;;;;;9.63;8.87;;;;;;;17.02;89.27;100807.28;5005591;28;20216;-78
2021/09/08 09:01:15;;;;;;;10.47;9.43;;;;;;;17.16;87.62;100862.13;5006592;28;20685;-78
2021/09/08 09:03:43;;;;;;;10.40;8.97;;;;;;;17.29;86.12;100904.72;5007947;28;20386;-78
2021/09/08 09:06:09;;;;;;;11.97;9.67;;;;;;;17.44;86.15;100901.47;5009132;28;20281;-79
2021/09/08 09:08:36;;;;;;;11.47;10.33;;;;;;;17.52;83.95;100965.38;5007733;28;20551;-79
2021/09/08 09:11:03;;;;;;;9.90;8.97;;;;;;;17.62;81.76;101047.69;5005238;28;20233;-78
2021/09/08 09:13:33;;;;;;;11.13;8.50;;;;;;;17.71;80.74;101080.81;5008738;28;20656;-79
2021/09/08 09:16:07;;;;;;;10.00;9.10;;;;;;;17.85;81.57;101039.75;5008348;28;20212;-77
2021/09/08 09:18:39;;;;;;;10.60;8.53;;;;;;;17.92;82.27;101015.75;5007570;28;20380;-78
2021/09/08 09:21:11;;;;;;;10.67;7.60;;;;;;;18.00;82.48;101016.31;5008578;28;20283;-78
2021/09/08 09:23:46;;;;;;;13.67;7.93;;;;;;;18.05;80.67;101048.69;5007579;28;20234;-77
2021/09/08 09:26:12;;;;;;;13.23;8.40;;;;;;;18.06;77.72;101164.03;5008277;28;20217;-78
2021/09/08 09:28:43;;;;;;;7.57;6.97;;;;;;;18.18;78.96;101115.13;5007456;28;20674;-77
2021/09/08 09:31:16;;;;;;;9.93;8.03;;;;;;;18.24;79.16;101110.44;5006728;28;20250;-78
2021/09/08 09:33:44;;;;;;;8.60;7.80;;;;;;;18.30;79.09;101095.28;5009821;28;20206;-79
2021/09/08 09:36:20;;;;;;;7.83;7.03;;;;;;;18.33;77.16;101154.13;5008557;28;20259;-80
2021/09/08 09:38:48;;;;;;;7.50;6.90;;;;;;;18.27;81.11;101016.94;5005699;28;20218;-76
2021/09/08 09:41:18;;;;;;;7.80;7.00;;;;;;;18.30;82.23;100957.84;5004261;28;20278;-76
2021/09/08 09:43:45;;;;;;;7.73;7.07;;;;;;;18.29;82.01;100967.53;5006116;28;20731;-79
2021/09/08 09:46:13;;;;;;;8.90;7.17;;;;;;;18.29;80.76;100988.66;5008946;28;20206;-78
2021/09/08 09:48:39;;;;;;;9.57;6.90;;;;;;;18.40;77.19;101146.84;5005724;28;20273;-76
2021/09/08 09:51:09;;;;;;;7.67;6.97;;;;;;;18.42;79.73;101045.38;5001481;28;20236;-76
2021/09/08 09:53:37;;;;;;;9.60;6.27;;;;;;;18.50;78.52;101086.53;5006425;28;20267;-76
2021/09/08 09:56:04;;;;;;;9.27;6.70;;;;;;;18.58;77.67;101122.28;5004798;28;20224;-77
2021/09/08 09:58:31;;;;;;;7.67;6.83;;;;;;;18.68;75.21;101206.53;5004269;28;20744;-78
2021/09/08 10:00:57;;;;;;;7.10;6.40;;;;;;;18.82;74.45;101239.47;5002995;28;20291;-77
2021/09/08 10:03:24;;;;;;;7.33;6.70;;;;;;;18.94;74.76;101213.44;5004778;28;20573;-77
2021/09/08 10:05:50;;;;;;;6.93;5.80;;;;;;;19.03;74.10;101221.84;5004381;28;20209;-78
2021/09/08 10:08:21;;;;;;;7.53;6.93;;;;;;;19.12;74.59;101206.50;5006624;28;20515;-78
2021/09/08 10:10:51;;;;;;;8.10;7.33;;;;;;;19.18;74.02;101243.31;5010543;28;20231;-79
2021/09/08 10:13:22;;;;;;;6.73;6.13;;;;;;;19.29;71.00;101338.16;5009950;28;20210;-79
2021/09/08 10:15:53;;;;;;;7.63;6.33;;;;;;;19.39;71.81;101290.06;5008119;28;20222;-78
2021/09/08 10:18:24;;;;;;;6.50;6.00;;;;;;;19.44;68.98;101379.88;5009190;28;20216;-81
2021/09/08 10:20:53;;;;;;;6.50;5.90;;;;;;;19.55;70.58;101313.25;5008889;28;20237;-79
2021/09/08 10:23:19;;;;;;;6.40;5.90;;;;;;;19.64;69.68;101356.09;5009920;28;20218;-79
2021/09/08 10:25:49;;;;;;;6.43;5.90;;;;;;;19.74;70.62;101305.38;5010028;28;20237;-79
2021/09/08 10:28:19;;;;;;;6.77;6.13;;;;;;;19.79;67.78;101389.03;5008616;28;20687;-80
2021/09/08 10:30:47;;;;;;;8.97;5.77;;;;;;;19.86;63.27;101563.66;5010048;28;20278;-81
2021/09/08 10:33:14;;;;;;;6.67;6.17;;;;;;;19.96;65.60;101499.66;5008423;28;20209;-79
2021/09/08 10:35:42;;;;;;;6.80;6.20;;;;;;;20.03;65.14;101511.69;5008178;28;20205;-81
2021/09/08 10:38:13;;;;;;;7.03;6.00;;;;;;;20.11;66.49;101428.34;5009299;28;20599;-80
2021/09/08 10:40:41;;;;;;;11.40;6.17;;;;;;;20.12;71.14;101232.13;5008556;28;20229;-81
2021/09/08 10:43:08;;;;;;;6.43;5.50;;;;;;;20.13;67.96;101354.94;5008619;28;20266;-80
2021/09/08 10:45:35;;;;;;;5.97;5.40;;;;;;;20.22;67.30;101410.19;5008516;28;20225;-80
2021/09/08 10:48:04;;;;;;;6.00;5.60;;;;;;;20.30;69.42;101304.66;5009356;28;20766;-80
2021/09/08 10:50:42;;;;;;;6.50;6.00;;;;;;;20.33;65.14;101445.03;5009314;28;20217;-80
2021/09/08 10:53:28;;;;;;;6.50;5.93;;;;;;;20.50;64.42;101484.09;5007504;28;20275;-82
2021/09/08 10:55:54;;;;;;;5.90;5.40;;;;;;;20.62;64.15;101453.56;5008466;28;20351;-80
2021/09/08 10:58:21;;;;;;;6.03;5.40;;;;;;;20.67;63.36;101512.56;5009820;28;20264;-80
2021/09/08 11:00:50;;;;;;;6.53;6.03;;;;;;;20.82;64.25;101455.31;5008519;28;20229;-80
2021/09/08 11:03:27;;;;;;;6.40;5.90;;;;;;;20.88;62.57;101470.09;5008213;28;20210;-81
2021/09/08 11:05:56;;;;;;;6.40;5.90;;;;;;;21.00;63.84;101474.84;5007778;28;20490;-78
2021/09/08 11:08:24;;;;;;;6.00;5.47;;;;;;;21.20;62.81;101455.31;5007955;28;20210;-81
2021/09/08 11:10:51;;;;;;;5.53;5.07;;;;;;;21.39;63.47;101479.22;5007145;28;20259;-79
2021/09/08 11:13:27;;;;;;;6.37;5.77;;;;;;;21.59;65.95;101337.47;5008296;28;20210;-81
2021/09/08 11:15:55;;;;;;;6.73;5.63;;;;;;;21.76;65.20;101382.66;5007751;28;20225;-81
2021/09/08 11:18:21;;;;;;;5.97;5.47;;;;;;;21.89;63.18;101494.53;5007212;28;20230;-80
2021/09/08 11:21:00;;;;;;;5.03;4.63;;;;;;;21.98;56.85;101656.25;5008001;28;20226;-81
2021/09/08 11:23:26;;;;;;;5.63;5.13;;;;;;;22.28;57.99;101660.19;5006992;28;20229;-81
2021/09/08 11:25:53;;;;;;;5.10;4.80;;;;;;;22.48;58.38;101629.97;5008699;28;20304;-81